Time;durP1;ratioP1;P1;durP2;ratioP2;P2;SDS_P1;SDS_P2;PMS_P1;PMS_P2;Temp;Humidity;BMP_temperature;BMP_pressure;BME280_temperature;BME280_humidity;BME280_pressure;Samples;Min_cycle;Max_cycle;Signal;HPM_P1;HPM_P2
2022/02/01 00:03:16;;;;;;;2.70;2.50;;;1.90;99.90;;;;;;5010419;28;20426;-74
2022/02/01 00:06:01;;;;;;;10.67;2.70;;;1.90;99.90;;;;;;5030205;28;20450;-75
2022/02/01 00:08:36;;;;;;;10.93;2.23;;;1.90;99.90;;;;;;5031577;28;20468;-74
2022/02/01 00:11:28;;;;;;;2.67;1.67;;;2.00;99.90;;;;;;5031648;28;20445;-74
2022/02/01 00:14:13;;;;;;;3.40;3.20;;;1.90;99.90;;;;;;5030217;28;20458;-74
2022/02/01 00:17:01;;;;;;;5.50;3.40;;;1.90;99.90;;;;;;5016104;28;20893;-76
2022/02/01 00:19:44;;;;;;;3.40;3.00;;;1.90;99.90;;;;;;5011963;28;20458;-76
2022/02/01 00:33:24;;;;;;;8.93;4.20;;;1.80;99.90;;;;;;5032142;28;20449;-74
2022/02/01 00:36:00;;;;;;;2.30;2.17;;;1.80;99.90;;;;;;5036197;28;20410;-75
2022/02/01 00:38:48;;;;;;;2.87;1.97;;;1.90;99.90;;;;;;5035788;28;20406;-74
2022/02/01 00:41:14;;;;;;;6.37;5.13;;;1.90;99.90;;;;;;5036322;28;20502;-75
2022/02/01 00:43:39;;;;;;;6.10;3.27;;;1.90;99.90;;;;;;5036006;28;20512;-74
2022/02/01 00:46:05;;;;;;;2.10;1.80;;;1.90;99.90;;;;;;5035748;28;20193;-73
2022/02/01 00:48:31;;;;;;;6.17;2.37;;;1.90;99.90;;;;;;5035459;28;20163;-74
2022/02/01 00:50:57;;;;;;;4.20;2.43;;;1.90;99.90;;;;;;5035435;28;20818;-74
2022/02/01 00:53:27;;;;;;;8.60;3.17;;;1.90;99.90;;;;;;5035097;28;20567;-74
2022/02/01 00:55:55;;;;;;;3.30;1.90;;;2.00;99.90;;;;;;5035424;28;20402;-74
2022/02/01 00:58:21;;;;;;;2.60;2.30;;;2.00;99.90;;;;;;5035602;28;20394;-74
2022/02/01 01:00:46;;;;;;;8.70;2.27;;;2.00;99.90;;;;;;5035381;28;20892;-74
2022/02/01 01:03:12;;;;;;;4.90;2.37;;;2.00;99.90;;;;;;5035556;28;20509;-74
2022/02/01 01:05:37;;;;;;;6.83;2.37;;;2.10;99.90;;;;;;5035261;28;20213;-74
2022/02/01 01:08:03;;;;;;;2.57;2.40;;;2.10;99.90;;;;;;5035008;28;20657;-74
2022/02/01 01:10:28;;;;;;;3.80;2.33;;;2.10;99.90;;;;;;5033861;28;20168;-74
2022/02/01 01:13:34;;;;;;;5.53;3.20;;;2.10;99.90;;;;;;5035005;28;20211;-74
2022/02/01 01:15:52;;;;;;;3.30;3.00;;;2.10;99.90;;;;;;5034568;28;20176;-74
2022/02/01 01:18:50;;;;;;;2.83;2.40;;;2.10;99.90;;;;;;5034949;28;20410;-74
2022/02/01 01:43:39;;;;;;;8.30;3.63;;;2.00;99.90;;;;;;5034367;28;20789;-73
2022/02/01 01:52:44;;;;;;;5.47;4.87;;;2.00;99.90;;;;;;5034676;28;20440;-75
2022/02/01 01:54:27;;;;;;;2.73;2.43;;;2.00;99.90;;;;;;5034830;28;20437;-75
2022/02/01 01:56:55;;;;;;;8.20;2.60;;;2.00;99.90;;;;;;5034627;28;20398;-74
2022/02/01 01:59:21;;;;;;;2.70;2.40;;;2.00;99.90;;;;;;5033193;28;20460;-74
2022/02/01 02:01:47;;;;;;;9.63;4.23;;;2.00;99.90;;;;;;5033975;28;20434;-74
2022/02/01 02:04:13;;;;;;;9.00;2.83;;;1.90;99.90;;;;;;5034251;28;20426;-74
2022/02/01 02:06:38;;;;;;;7.93;2.27;;;1.90;99.90;;;;;;5034248;28;20176;-74
2022/02/01 02:09:08;;;;;;;4.10;2.03;;;1.90;99.90;;;;;;5034248;28;20185;-74
2022/02/01 02:11:45;;;;;;;2.90;2.70;;;1.90;99.90;;;;;;5033848;28;20585;-74
2022/02/01 02:16:50;;;;;;;3.17;2.43;;;2.00;99.90;;;;;;5034053;28;20818;-74
2022/02/01 02:19:16;;;;;;;9.50;3.90;;;2.00;99.90;;;;;;5032539;28;20425;-74
2022/02/01 02:21:46;;;;;;;4.83;3.53;;;2.00;99.90;;;;;;5033779;28;20453;-73
2022/02/01 02:24:12;;;;;;;5.33;3.50;;;2.00;99.90;;;;;;5033974;28;20434;-75
2022/02/01 02:26:38;;;;;;;4.30;3.20;;;2.00;99.90;;;;;;5034076;28;20419;-74
2022/02/01 02:29:04;;;;;;;1.90;1.80;;;2.10;99.90;;;;;;5032416;28;20229;-75
2022/02/01 02:31:32;;;;;;;5.60;3.40;;;2.10;99.90;;;;;;5033551;28;20592;-75
2022/02/01 02:34:06;;;;;;;8.47;3.63;;;2.00;99.90;;;;;;5033287;28;20422;-74
2022/02/01 02:36:35;;;;;;;3.83;2.60;;;2.00;99.90;;;;;;5033562;28;20394;-75
2022/02/01 02:39:09;;;;;;;6.00;2.80;;;2.10;99.90;;;;;;5033519;28;20864;-74
2022/02/01 02:41:48;;;;;;;4.77;2.90;;;2.10;99.90;;;;;;5033478;28;20406;-73
2022/02/01 02:46:57;;;;;;;2.43;1.97;;;2.10;99.90;;;;;;5033378;28;20915;-74
2022/02/01 02:49:23;;;;;;;6.20;4.73;;;2.10;99.90;;;;;;5033075;28;20418;-74
2022/02/01 02:51:49;;;;;;;3.47;3.17;;;2.10;99.90;;;;;;5033164;28;20685;-74
2022/02/01 02:54:21;;;;;;;2.17;1.97;;;2.20;99.90;;;;;;5033249;28;20523;-73
2022/02/01 02:56:50;;;;;;;2.90;1.93;;;2.20;99.90;;;;;;5033155;28;20429;-74
2022/02/01 02:59:16;;;;;;;10.07;3.40;;;2.20;99.90;;;;;;5033268;28;20572;-74
2022/02/01 03:01:47;;;;;;;8.80;5.03;;;2.20;99.90;;;;;;5032951;28;20445;-74
2022/02/01 03:04:15;;;;;;;3.77;2.80;;;2.30;99.90;;;;;;5032770;28;20776;-74
2022/02/01 03:06:41;;;;;;;4.43;3.43;;;2.30;99.90;;;;;;5032885;28;20433;-74
2022/02/01 03:09:06;;;;;;;4.90;3.10;;;2.30;99.90;;;;;;5032787;28;20828;-74
2022/02/01 03:11:32;;;;;;;17.97;4.97;;;2.40;99.90;;;;;;5033201;28;20520;-74
2022/02/01 03:14:00;;;;;;;6.70;3.23;;;2.40;99.90;;;;;;5032633;28;20226;-74
2022/02/01 03:16:48;;;;;;;5.33;3.67;;;2.40;99.90;;;;;;5032885;28;20199;-74
2022/02/01 03:21:58;;;;;;;4.83;4.07;;;2.30;99.90;;;;;;5032697;28;20437;-74
2022/02/01 03:24:24;;;;;;;6.60;4.07;;;2.40;99.90;;;;;;5032564;28;20430;-76
2022/02/01 03:26:49;;;;;;;3.70;2.53;;;2.40;99.90;;;;;;5032885;28;20195;-74
2022/02/01 03:29:15;;;;;;;8.30;4.07;;;2.40;99.90;;;;;;5032461;28;20642;-74
2022/02/01 03:31:41;;;;;;;5.30;4.90;;;2.50;99.90;;;;;;5032153;28;20198;-74
2022/02/01 03:34:07;;;;;;;7.23;3.63;;;2.50;99.90;;;;;;5032447;28;20636;-75
2022/02/01 03:36:32;;;;;;;3.90;3.37;;;2.50;99.90;;;;;;5032498;28;20489;-73
2022/02/01 03:38:59;;;;;;;4.30;3.87;;;2.60;99.90;;;;;;5032219;28;20167;-73
2022/02/01 03:41:24;;;;;;;4.13;2.50;;;2.60;99.90;;;;;;5032092;28;20586;-73
2022/02/01 03:43:50;;;;;;;6.40;3.80;;;2.60;99.90;;;;;;5031919;28;20465;-74
2022/02/01 03:46:16;;;;;;;9.00;3.63;;;2.50;99.90;;;;;;5032234;28;20662;-74
2022/02/01 03:48:42;;;;;;;6.67;4.17;;;2.50;99.90;;;;;;5032181;28;20175;-74
2022/02/01 03:51:08;;;;;;;5.60;5.00;;;2.50;99.90;;;;;;5032104;28;20438;-74
2022/02/01 03:53:35;;;;;;;3.73;2.97;;;2.50;99.90;;;;;;5031953;28;20430;-74
2022/02/01 03:56:00;;;;;;;4.63;4.20;;;2.50;99.90;;;;;;5031984;28;20410;-74
2022/02/01 03:58:26;;;;;;;9.20;4.70;;;2.60;99.90;;;;;;5031888;28;20781;-74
2022/02/01 04:00:51;;;;;;;6.63;3.20;;;2.60;99.90;;;;;;5031111;28;20259;-74
2022/02/01 04:03:17;;;;;;;3.63;3.33;;;2.60;99.90;;;;;;5031238;28;20191;-74
2022/02/01 04:05:42;;;;;;;6.07;3.37;;;2.60;99.90;;;;;;5031847;28;20168;-74
2022/02/01 04:08:08;;;;;;;6.97;4.83;;;2.60;99.90;;;;;;5032394;28;20174;-74
2022/02/01 04:10:33;;;;;;;5.73;3.87;;;2.60;99.90;;;;;;5031835;28;20163;-74
2022/02/01 04:13:00;;;;;;;6.33;4.63;;;2.60;99.90;;;;;;5031525;28;20294;-74
2022/02/01 04:15:27;;;;;;;11.30;4.53;;;2.60;99.90;;;;;;5030557;28;20201;-74
2022/02/01 04:17:54;;;;;;;7.00;4.70;;;2.60;99.90;;;;;;5031953;28;20757;-74
2022/02/01 04:20:20;;;;;;;7.90;4.30;;;2.60;99.90;;;;;;5031565;28;20421;-73
2022/02/01 04:22:45;;;;;;;8.03;5.27;;;2.60;99.90;;;;;;5031486;28;20522;-74
2022/02/01 04:25:11;;;;;;;5.80;4.90;;;2.60;99.90;;;;;;5031835;28;20224;-74
2022/02/01 04:27:37;;;;;;;5.23;4.07;;;2.60;99.90;;;;;;5031818;28;20176;-74
2022/02/01 04:30:10;;;;;;;5.23;4.40;;;2.60;99.90;;;;;;5031339;28;20183;-74
2022/02/01 04:32:39;;;;;;;3.80;3.13;;;2.60;99.90;;;;;;5031480;28;20485;-74
2022/02/01 04:35:07;;;;;;;6.43;3.30;;;2.60;99.90;;;;;;5031656;28;20409;-74
2022/02/01 04:37:33;;;;;;;3.97;2.87;;;2.50;99.90;;;;;;5031617;28;20444;-74
2022/02/01 04:39:59;;;;;;;14.57;5.20;;;2.50;99.90;;;;;;5029989;28;20492;-74
2022/02/01 04:42:27;;;;;;;17.03;4.13;;;2.60;99.90;;;;;;5031215;28;20175;-74
2022/02/01 04:44:53;;;;;;;8.27;5.07;;;2.60;99.90;;;;;;5031646;28;20421;-75
2022/02/01 04:47:18;;;;;;;10.37;5.20;;;2.60;99.90;;;;;;5030281;28;20421;-75
2022/02/01 04:49:45;;;;;;;6.40;3.77;;;2.60;99.90;;;;;;5031461;28;20171;-75
2022/02/01 04:52:10;;;;;;;4.33;3.57;;;2.50;99.90;;;;;;5031285;28;20391;-74
2022/02/01 04:54:35;;;;;;;12.37;4.53;;;2.60;99.90;;;;;;5031893;28;20758;-75
2022/02/01 04:57:01;;;;;;;9.10;2.80;;;2.60;99.90;;;;;;5031483;28;20163;-75
2022/02/01 04:59:26;;;;;;;5.07;4.60;;;2.60;99.90;;;;;;5031299;28;20218;-75
2022/02/01 05:01:52;;;;;;;10.60;5.00;;;2.60;99.90;;;;;;5031388;28;20211;-75
2022/02/01 05:04:20;;;;;;;7.37;5.77;;;2.50;99.90;;;;;;5031568;28;20183;-75
2022/02/01 05:06:52;;;;;;;6.93;5.33;;;2.50;99.90;;;;;;5031690;28;20176;-75
2022/02/01 05:09:17;;;;;;;5.73;3.80;;;2.50;99.90;;;;;;5031472;28;20395;-75
2022/02/01 05:11:43;;;;;;;12.10;5.37;;;2.50;99.90;;;;;;5031313;28;20446;-75
2022/02/01 05:14:13;;;;;;;15.40;5.57;;;2.50;99.90;;;;;;5034309;28;20295;-75
2022/02/01 05:22:03;;;;;;;10.57;5.47;;;2.60;99.90;;;;;;5034740;28;20421;-75
2022/02/01 05:24:29;;;;;;;4.87;4.50;;;2.50;99.90;;;;;;5034852;28;20460;-74
2022/02/01 05:26:56;;;;;;;9.53;3.63;;;2.50;99.90;;;;;;5034546;28;20402;-74
2022/02/01 05:29:23;;;;;;;11.30;5.20;;;2.50;99.90;;;;;;5033070;28;20438;-74
2022/02/01 05:31:50;;;;;;;5.63;5.03;;;2.40;99.90;;;;;;5034456;28;20449;-74
2022/02/01 05:34:15;;;;;;;4.50;3.90;;;2.40;99.90;;;;;;5034646;28;20430;-75
2022/02/01 05:36:41;;;;;;;10.67;5.60;;;2.30;99.90;;;;;;5034608;28;20406;-75
2022/02/01 05:39:18;;;;;;;3.20;3.00;;;2.30;99.90;;;;;;5034330;28;20533;-75
2022/02/01 05:41:44;;;;;;;7.10;2.97;;;2.20;99.90;;;;;;5034186;28;20167;-75
2022/02/01 05:44:11;;;;;;;6.93;6.23;;;2.10;99.90;;;;;;5034303;28;20426;-75
2022/02/01 05:46:37;;;;;;;6.03;5.20;;;2.10;99.90;;;;;;5034545;28;20413;-75
2022/02/01 05:49:05;;;;;;;4.70;4.00;;;2.10;99.90;;;;;;5034193;28;20410;-75
2022/02/01 05:51:31;;;;;;;5.70;4.80;;;2.10;99.90;;;;;;5034331;28;20195;-75
2022/02/01 05:53:57;;;;;;;4.20;3.83;;;2.00;99.90;;;;;;5034227;28;20458;-75
2022/02/01 05:56:23;;;;;;;2.93;2.70;;;2.00;99.90;;;;;;5034092;28;20509;-75
2022/02/01 05:58:48;;;;;;;4.10;3.20;;;2.00;99.90;;;;;;5033013;28;20171;-74
2022/02/01 06:01:14;;;;;;;3.30;3.00;;;2.10;99.90;;;;;;5034334;28;20649;-75
2022/02/01 06:03:40;;;;;;;8.70;5.17;;;2.10;99.90;;;;;;5034241;28;20187;-75
2022/02/01 06:06:07;;;;;;;3.90;1.83;;;2.10;99.90;;;;;;5032678;28;20414;-75
2022/02/01 06:08:33;;;;;;;6.93;3.87;;;2.10;99.90;;;;;;5034366;28;20222;-73
2022/02/01 06:10:59;;;;;;;9.33;3.97;;;2.00;99.90;;;;;;5034317;28;20442;-74
2022/02/01 06:13:24;;;;;;;5.10;4.50;;;2.10;99.90;;;;;;5034042;28;20206;-74
2022/02/01 06:15:49;;;;;;;5.30;3.17;;;2.10;99.90;;;;;;5033956;28;20172;-74
2022/02/01 06:18:15;;;;;;;3.80;3.27;;;2.10;99.90;;;;;;5034377;28;20172;-74
2022/02/01 06:20:40;;;;;;;5.20;3.00;;;2.00;99.90;;;;;;5034504;28;20175;-74
2022/02/01 06:23:16;;;;;;;5.73;3.10;;;2.00;99.90;;;;;;5033807;28;20211;-74
2022/02/01 06:25:48;;;;;;;5.17;3.10;;;2.10;99.90;;;;;;5031427;28;20202;-74
2022/02/01 06:28:15;;;;;;;5.90;3.23;;;2.10;99.90;;;;;;5033391;28;20939;-74
2022/02/01 06:30:41;;;;;;;4.77;3.93;;;2.10;99.90;;;;;;5033172;28;20410;-74
2022/02/01 06:33:08;;;;;;;3.67;3.47;;;2.10;99.90;;;;;;5033255;28;20418;-73
2022/02/01 06:35:33;;;;;;;10.67;5.27;;;2.20;99.90;;;;;;5033274;28;20410;-73
2022/02/01 06:37:59;;;;;;;9.17;4.93;;;2.20;99.90;;;;;;5039716;22;20495;-75
2022/02/01 06:40:24;;;;;;;3.83;3.03;;;2.20;99.90;;;;;;4994450;28;20810;-77
2022/02/01 06:42:51;;;;;;;6.40;3.20;;;2.30;99.90;;;;;;4995592;28;20173;-77
2022/02/01 06:45:17;;;;;;;3.87;3.40;;;2.20;99.90;;;;;;4994771;28;20185;-75
2022/02/01 06:47:42;;;;;;;5.13;3.30;;;2.20;99.90;;;;;;4994472;28;20454;-75
2022/02/01 06:50:08;;;;;;;6.07;3.30;;;2.30;99.90;;;;;;4994785;28;20200;-73
2022/02/01 06:52:34;;;;;;;10.53;4.37;;;2.30;99.90;;;;;;4994959;28;20209;-74
2022/02/01 06:55:02;;;;;;;10.87;5.57;;;2.30;99.90;;;;;;4995148;28;21006;-74
2022/02/01 06:57:28;;;;;;;5.63;3.07;;;2.40;99.90;;;;;;4993274;28;20466;-74
2022/02/01 06:59:53;;;;;;;8.77;5.30;;;2.30;99.90;;;;;;4994422;28;20412;-74
2022/02/01 07:02:19;;;;;;;5.43;4.20;;;2.40;99.90;;;;;;4994676;28;20311;-73
2022/02/01 07:04:46;;;;;;;14.90;4.97;;;2.40;99.90;;;;;;5007620;28;20169;-76
2022/02/01 07:07:12;;;;;;;7.33;3.00;;;2.40;99.90;;;;;;4993684;28;20423;-73
2022/02/01 07:09:39;;;;;;;4.07;2.67;;;2.40;99.90;;;;;;4989854;28;20885;-75
2022/02/01 07:12:05;;;;;;;4.83;3.83;;;2.40;99.90;;;;;;4994151;28;20197;-75
2022/02/01 07:14:31;;;;;;;3.80;3.10;;;2.40;99.90;;;;;;4994243;28;20408;-74
2022/02/01 07:16:56;;;;;;;3.50;2.83;;;2.40;99.90;;;;;;4994615;28;20494;-73
2022/02/01 07:19:22;;;;;;;3.10;2.80;;;2.40;99.90;;;;;;4993207;28;20203;-73
2022/02/01 07:21:48;;;;;;;4.17;2.73;;;2.40;99.90;;;;;;4994588;28;20173;-74
2022/02/01 07:24:17;;;;;;;3.23;2.40;;;2.40;99.90;;;;;;4994772;28;20173;-75
2022/02/01 07:26:54;;;;;;;3.03;2.73;;;2.40;99.90;;;;;;4994080;28;20423;-73
2022/02/01 07:29:19;;;;;;;7.27;4.07;;;2.40;99.90;;;;;;4994539;28;21263;-73
2022/02/01 07:31:45;;;;;;;3.70;2.67;;;2.40;99.90;;;;;;4995000;28;20456;-74
2022/02/01 07:34:12;;;;;;;4.47;3.27;;;2.50;99.90;;;;;;4996139;28;20181;-73
2022/02/01 07:36:37;;;;;;;9.70;3.93;;;2.50;99.90;;;;;;5001130;28;20169;-74
2022/02/01 07:39:06;;;;;;;2.97;2.50;;;2.50;99.90;;;;;;4998995;28;20439;-75
2022/02/01 07:41:32;;;;;;;2.63;2.43;;;2.50;99.90;;;;;;5001759;28;20589;-75
2022/02/01 07:43:57;;;;;;;3.00;2.80;;;2.50;99.90;;;;;;4997731;28;20923;-75
2022/02/01 07:46:23;;;;;;;6.27;4.20;;;2.50;99.90;;;;;;4994985;28;20696;-73
2022/02/01 07:48:49;;;;;;;10.10;2.63;;;2.50;99.90;;;;;;4994595;28;20602;-73
2022/02/01 07:51:15;;;;;;;9.43;3.53;;;2.50;99.90;;;;;;4994558;28;20543;-74
2022/02/01 07:53:40;;;;;;;2.60;2.40;;;2.50;99.90;;;;;;4994947;28;20192;-74
2022/02/01 07:56:06;;;;;;;5.23;3.03;;;2.50;99.90;;;;;;4994210;28;20169;-73
2022/02/01 07:58:31;;;;;;;1.87;1.73;;;2.50;99.90;;;;;;4992983;28;20679;-73
2022/02/01 08:00:57;;;;;;;2.00;1.57;;;2.60;99.90;;;;;;4994835;28;20173;-73
2022/02/01 08:03:22;;;;;;;1.63;1.53;;;2.60;99.90;;;;;;4995618;28;20173;-74
2022/02/01 08:05:48;;;;;;;2.83;2.17;;;2.70;99.90;;;;;;4996807;28;20245;-73
2022/02/01 08:08:14;;;;;;;3.67;2.10;;;2.80;99.90;;;;;;4995137;28;20613;-74
2022/02/01 08:10:47;;;;;;;3.40;1.40;;;2.80;99.90;;;;;;4995321;28;20176;-74
2022/02/01 08:18:53;;;;;;;2.40;2.20;;;2.90;99.90;;;;;;4994332;28;20918;-74
2022/02/01 08:21:27;;;;;;;6.43;3.00;;;2.90;99.90;;;;;;4974954;28;20765;-73
2022/02/01 08:23:54;;;;;;;14.43;2.23;;;3.10;99.90;;;;;;4975677;28;20451;-73
2022/02/01 08:26:20;;;;;;;3.50;2.53;;;3.10;99.90;;;;;;4975783;28;20440;-74
2022/02/01 08:28:46;;;;;;;4.30;2.60;;;3.20;99.90;;;;;;4974993;28;20519;-74
2022/02/01 08:31:11;;;;;;;2.87;1.87;;;3.30;99.90;;;;;;4975127;28;20495;-73
2022/02/01 08:33:38;;;;;;;4.23;2.13;;;3.30;99.90;;;;;;4974649;28;20162;-73
2022/02/01 08:36:04;;;;;;;1.97;1.60;;;3.30;99.90;;;;;;4982806;28;20173;-73
2022/02/01 08:38:30;;;;;;;2.40;1.90;;;3.40;99.90;;;;;;4992248;28;20575;-73
2022/02/01 08:40:58;;;;;;;3.93;1.73;;;3.30;99.90;;;;;;4993551;28;20888;-74
2022/02/01 08:43:23;;;;;;;2.07;1.33;;;3.30;99.90;;;;;;4988753;28;20177;-73
2022/02/01 08:45:49;;;;;;;4.83;1.30;;;3.40;99.90;;;;;;4973743;28;20409;-73
2022/02/01 08:48:14;;;;;;;4.03;1.70;;;3.50;99.90;;;;;;4976037;28;20193;-73
2022/02/01 08:50:40;;;;;;;2.20;1.60;;;3.40;99.90;;;;;;4977062;28;20843;-72
2022/02/01 08:53:22;;;;;;;4.90;2.90;;;3.40;99.90;;;;;;4980936;28;20225;-73
2022/02/01 08:58:24;;;;;;;2.43;1.83;;;3.60;99.90;;;;;;4977270;28;20427;-73
2022/02/01 09:00:50;;;;;;;3.50;2.57;;;3.60;99.90;;;;;;4995951;28;20447;-73
2022/02/01 09:03:16;;;;;;;2.13;2.03;;;3.50;99.90;;;;;;5000488;28;20408;-74
2022/02/01 09:05:45;;;;;;;2.83;1.87;;;3.60;99.90;;;;;;4996686;28;20252;-73
2022/02/01 09:08:11;;;;;;;3.00;1.50;;;3.60;99.90;;;;;;4995951;28;20542;-72
2022/02/01 09:10:37;;;;;;;3.43;2.20;;;3.70;99.90;;;;;;5005573;28;20977;-74
2022/02/01 09:13:03;;;;;;;2.37;1.40;;;3.60;99.90;;;;;;5003766;28;20451;-73
2022/02/01 09:15:29;;;;;;;4.27;2.30;;;3.50;99.90;;;;;;4995403;28;20423;-73
2022/02/01 09:17:58;;;;;;;3.67;1.60;;;3.60;99.90;;;;;;4995185;28;20510;-73
2022/02/01 09:20:24;;;;;;;5.47;2.37;;;3.70;99.90;;;;;;4995391;28;20443;-72
2022/02/01 09:22:50;;;;;;;4.77;2.13;;;3.80;99.90;;;;;;4994196;28;20412;-71
2022/02/01 09:25:17;;;;;;;8.10;1.70;;;3.80;99.90;;;;;;4995409;28;20404;-73
2022/02/01 09:27:44;;;;;;;2.00;1.80;;;3.70;99.90;;;;;;4995388;28;20256;-73
2022/02/01 09:30:10;;;;;;;1.57;1.37;;;3.80;99.90;;;;;;4996316;28;20420;-73
2022/02/01 09:32:36;;;;;;;2.27;1.70;;;3.80;99.90;;;;;;4995428;28;20537;-73
2022/02/01 09:35:01;;;;;;;1.77;1.67;;;3.80;99.90;;;;;;4996255;28;20408;-72
2022/02/01 09:37:27;;;;;;;2.07;1.50;;;3.80;99.90;;;;;;4996151;28;20177;-73
2022/02/01 09:39:53;;;;;;;1.67;1.57;;;3.80;99.90;;;;;;4980193;28;20264;-72
2022/02/01 09:42:18;;;;;;;2.83;1.70;;;3.80;99.90;;;;;;4989323;28;20188;-73
2022/02/01 09:44:44;;;;;;;1.33;1.27;;;3.90;99.90;;;;;;4996608;28;20182;-73
2022/02/01 09:47:10;;;;;;;6.63;1.50;;;4.00;99.90;;;;;;4996944;28;20181;-73
2022/02/01 09:49:37;;;;;;;5.87;1.57;;;3.90;99.90;;;;;;4997606;28;20436;-73
2022/02/01 09:52:03;;;;;;;1.60;1.50;;;3.80;99.90;;;;;;4998741;28;20484;-73
2022/02/01 09:54:30;;;;;;;4.00;1.00;;;3.80;99.90;;;;;;4995965;28;20413;-73
2022/02/01 09:56:58;;;;;;;1.43;1.20;;;3.80;99.90;;;;;;4995577;28;20424;-73
2022/02/01 09:59:31;;;;;;;5.57;2.30;;;3.90;99.90;;;;;;4995016;28;20507;-72
2022/02/01 10:02:03;;;;;;;6.30;2.83;;;3.90;99.90;;;;;;4994765;28;20423;-73
2022/02/01 10:04:29;;;;;;;3.87;1.20;;;3.90;99.90;;;;;;4997001;28;20436;-73
2022/02/01 10:07:08;;;;;;;11.50;1.63;;;3.80;99.90;;;;;;4996066;28;20930;-73
2022/02/01 10:09:33;;;;;;;0.90;0.90;;;3.90;99.90;;;;;;4994063;28;20251;-73
2022/02/01 10:11:59;;;;;;;2.17;0.90;;;4.20;99.90;;;;;;4995697;28;20459;-72
2022/02/01 10:14:31;;;;;;;1.30;1.20;;;4.10;99.90;;;;;;4995307;28;20175;-74
2022/02/01 10:16:59;;;;;;;2.50;1.30;;;4.10;99.90;;;;;;4995430;28;20188;-73
2022/02/01 10:19:25;;;;;;;8.03;2.40;;;3.90;99.90;;;;;;4995440;28;21005;-73
2022/02/01 10:21:59;;;;;;;2.30;2.10;;;4.00;99.90;;;;;;4995763;28;20416;-73
2022/02/01 10:24:34;;;;;;;2.27;1.37;;;4.00;99.90;;;;;;4994629;28;20169;-72
2022/02/01 10:27:19;;;;;;;0.70;0.70;;;4.10;99.90;;;;;;4994315;28;20906;-73
2022/02/01 10:32:55;;;;;;;1.37;1.20;;;4.10;99.90;;;;;;4992895;28;20579;-74
2022/02/01 10:38:05;;;;;;;3.90;1.17;;;4.10;99.90;;;;;;4994111;28;20483;-75
2022/02/01 10:40:48;;;;;;;2.43;1.83;;;4.10;99.90;;;;;;4993897;28;20420;-72
2022/02/01 10:43:27;;;;;;;2.47;1.30;;;4.10;99.90;;;;;;4993853;28;20898;-73
2022/02/01 10:45:59;;;;;;;1.47;1.37;;;4.00;99.90;;;;;;4994102;28;20809;-72
2022/02/01 10:48:27;;;;;;;2.00;1.53;;;4.20;99.90;;;;;;5012734;28;20426;-73
2022/02/01 10:51:02;;;;;;;2.50;1.23;;;4.20;99.90;;;;;;5013448;28;20412;-74
2022/02/01 10:53:28;;;;;;;2.83;1.90;;;4.10;99.90;;;;;;5013467;28;20422;-73
2022/02/01 10:55:55;;;;;;;2.17;1.97;;;4.20;99.90;;;;;;5013622;28;20905;-73
2022/02/01 10:58:20;;;;;;;1.83;1.70;;;4.20;99.90;;;;;;5013423;28;20267;-73
2022/02/01 11:00:47;;;;;;;1.20;1.10;;;4.20;99.90;;;;;;5013964;28;20408;-76
2022/02/01 11:03:15;;;;;;;4.17;2.70;;;4.20;99.90;;;;;;5015492;28;20615;-74
2022/02/01 11:05:45;;;;;;;1.57;1.40;;;4.20;99.90;;;;;;5015401;28;20697;-72
2022/02/01 11:08:13;;;;;;;1.23;1.07;;;4.30;99.90;;;;;;5017197;28;20427;-72
2022/02/01 11:10:44;;;;;;;1.57;1.00;;;4.40;99.90;;;;;;5015080;28;20395;-72
2022/02/01 11:13:10;;;;;;;2.70;1.40;;;4.20;99.90;;;;;;5011791;28;20450;-72
2022/02/01 11:15:36;;;;;;;1.50;1.30;;;4.30;99.90;;;;;;4993535;28;20428;-72
2022/02/01 11:18:23;;;;;;;1.07;0.97;;;4.20;99.90;;;;;;4993348;28;20850;-72
2022/02/01 11:20:49;;;;;;;1.53;1.00;;;4.30;99.90;;;;;;4993607;28;20512;-74
2022/02/01 11:23:21;;;;;;;2.70;2.23;;;4.30;99.90;;;;;;4993417;28;20411;-72
2022/02/01 11:25:53;;;;;;;5.97;2.00;;;4.30;99.90;;;;;;4991849;28;20515;-72
2022/02/01 11:31:05;;;;;;;2.77;2.57;;;4.30;99.90;;;;;;4993212;28;20562;-72
2022/02/01 11:33:44;;;;;;;1.97;1.63;;;4.30;99.90;;;;;;4992772;28;20412;-72
2022/02/01 11:36:12;;;;;;;1.90;1.43;;;4.30;99.90;;;;;;4993457;28;20204;-76
2022/02/01 11:38:53;;;;;;;1.53;1.43;;;4.30;99.90;;;;;;4992936;28;20791;-74
2022/02/01 11:41:37;;;;;;;1.23;1.13;;;4.50;99.90;;;;;;4996367;28;20487;-72
2022/02/01 11:44:12;;;;;;;1.90;1.50;;;4.50;99.90;;;;;;4993105;28;20412;-72
2022/02/01 11:46:47;;;;;;;2.47;1.20;;;4.50;99.90;;;;;;4997337;28;20419;-72
2022/02/01 11:49:21;;;;;;;9.33;2.40;;;4.50;99.90;;;;;;5012291;28;20844;-73
2022/02/01 11:51:48;;;;;;;5.23;2.60;;;4.50;99.90;;;;;;5012352;28;20473;-72
2022/02/01 11:54:14;;;;;;;2.67;1.93;;;4.50;99.90;;;;;;5012391;28;20432;-73
2022/02/01 11:56:41;;;;;;;5.67;3.57;;;4.50;99.90;;;;;;5012427;28;20941;-74
2022/02/01 11:59:09;;;;;;;2.83;1.30;;;4.60;99.90;;;;;;5012919;28;20315;-72
2022/02/01 12:01:37;;;;;;;1.43;1.20;;;4.60;99.90;;;;;;5013442;28;20834;-73
2022/02/01 12:04:05;;;;;;;2.27;2.00;;;4.70;99.90;;;;;;5012065;28;20928;-72
2022/02/01 12:07:08;;;;;;;2.97;1.40;;;4.60;99.90;;;;;;5012037;28;20403;-73
2022/02/01 12:09:33;;;;;;;3.40;1.43;;;4.60;99.90;;;;;;4998061;28;20458;-74
2022/02/01 12:12:01;;;;;;;1.67;1.57;;;4.70;99.90;;;;;;4992397;28;20487;-74
2022/02/01 12:14:27;;;;;;;1.50;1.30;;;4.80;99.90;;;;;;4992166;28;20224;-72
2022/02/01 12:16:54;;;;;;;5.27;1.20;;;4.80;99.90;;;;;;4992351;28;20779;-73
2022/02/01 12:19:34;;;;;;;8.73;1.73;;;4.90;99.90;;;;;;4990808;28;20435;-73
2022/02/01 12:22:29;;;;;;;1.30;1.20;;;4.90;99.90;;;;;;4992101;28;20415;-72
2022/02/01 12:25:03;;;;;;;2.80;2.20;;;5.00;99.90;;;;;;4990508;28;20415;-72
2022/02/01 12:27:36;;;;;;;1.30;1.20;;;5.00;99.90;;;;;;4994941;28;20412;-73
2022/02/01 12:30:05;;;;;;;2.03;1.80;;;4.80;99.90;;;;;;4996011;28;20412;-72
2022/02/01 12:32:30;;;;;;;1.20;1.17;;;4.70;99.90;;;;;;4996072;28;20463;-75
2022/02/01 12:34:56;;;;;;;2.30;1.10;;;4.70;99.90;;;;;;4996045;28;20412;-73
2022/02/01 12:37:23;;;;;;;1.50;1.03;;;4.60;99.90;;;;;;4995937;28;20526;-72
2022/02/01 12:40:09;;;;;;;0.90;0.90;;;4.70;99.90;;;;;;4996070;28;20211;-73
2022/02/01 12:42:49;;;;;;;6.43;1.30;;;4.60;99.90;;;;;;4995772;28;20982;-74
2022/02/01 12:48:01;;;;;;;1.60;1.10;;;4.60;99.90;;;;;;5011948;28;20477;-73
2022/02/01 12:50:27;;;;;;;4.03;1.93;;;4.70;99.90;;;;;;5016232;28;20418;-73
2022/02/01 12:52:59;;;;;;;3.13;1.37;;;4.60;99.90;;;;;;5015939;28;20500;-73
2022/02/01 12:55:25;;;;;;;3.53;1.50;;;4.50;99.90;;;;;;5016187;28;20418;-73
2022/02/01 12:57:51;;;;;;;2.77;1.20;;;4.50;99.90;;;;;;5016059;28;20805;-71
2022/02/01 13:00:20;;;;;;;1.97;1.87;;;4.60;99.90;;;;;;5015848;28;20402;-72
2022/02/01 13:02:46;;;;;;;2.33;1.40;;;4.60;99.90;;;;;;5005475;28;20431;-73
2022/02/01 13:05:16;;;;;;;2.13;1.57;;;4.60;99.90;;;;;;4996482;28;20422;-73
2022/02/01 13:07:58;;;;;;;1.80;1.57;;;4.50;99.90;;;;;;4995204;28;20459;-75
2022/02/01 13:15:53;;;;;;;3.00;1.27;;;4.40;99.90;;;;;;4996929;28;20455;-74
2022/02/01 13:18:26;;;;;;;1.57;0.87;;;4.50;99.90;;;;;;4996299;28;20428;-74
2022/02/01 13:21:00;;;;;;;0.90;0.90;;;4.40;99.90;;;;;;4996061;28;20400;-73
2022/02/01 13:23:43;;;;;;;2.40;1.33;;;4.30;99.90;;;;;;4995877;28;20396;-76
2022/02/01 13:26:11;;;;;;;1.57;0.90;;;4.30;99.90;;;;;;4996325;28;20401;-74
2022/02/01 13:28:41;;;;;;;1.33;1.30;;;4.30;99.90;;;;;;4997318;28;20413;-73
2022/02/01 13:31:12;;;;;;;1.40;1.10;;;4.20;99.90;;;;;;4997591;28;20930;-73
2022/02/01 13:33:52;;;;;;;1.10;1.00;;;4.10;99.90;;;;;;4995493;28;20412;-73
2022/02/01 13:36:18;;;;;;;3.60;1.43;;;4.20;99.90;;;;;;4996406;28;20817;-73
2022/02/01 13:38:52;;;;;;;0.83;0.80;;;4.10;99.90;;;;;;4995556;28;20456;-74
2022/02/01 13:41:19;;;;;;;1.10;1.10;;;4.30;99.90;;;;;;4996079;28;20420;-73
2022/02/01 13:43:47;;;;;;;1.40;1.30;;;4.10;99.90;;;;;;4993898;28;20427;-74
2022/02/01 13:46:24;;;;;;;2.53;0.97;;;4.10;99.90;;;;;;4996721;28;20431;-75
2022/02/01 13:49:07;;;;;;;1.00;1.00;;;4.10;99.90;;;;;;4998621;28;20779;-75
2022/02/01 13:51:48;;;;;;;0.90;0.90;;;4.10;99.90;;;;;;4994275;28;20487;-74
2022/02/01 13:54:14;;;;;;;1.07;1.03;;;4.00;99.90;;;;;;4995618;28;20415;-73
2022/02/01 13:56:45;;;;;;;1.87;1.20;;;3.90;99.90;;;;;;4995707;28;20475;-73
2022/02/01 13:59:23;;;;;;;1.00;1.00;;;3.90;99.90;;;;;;4995423;28;20446;-74
2022/02/01 14:02:00;;;;;;;4.73;1.43;;;3.70;99.90;;;;;;4995487;28;20412;-74
2022/02/01 14:04:31;;;;;;;1.70;1.60;;;3.70;99.90;;;;;;4995038;28;20407;-74
2022/02/01 14:09:54;;;;;;;3.10;1.37;;;3.60;99.90;;;;;;4995271;28;20435;-74
2022/02/01 14:25:47;;;;;;;14.63;2.13;;;3.40;99.90;;;;;;4994360;28;20412;-72
2022/02/01 14:28:24;;;;;;;1.53;1.43;;;3.40;99.90;;;;;;4997188;28;20882;-71
2022/02/01 14:36:13;;;;;;;1.10;1.10;;;3.20;99.90;;;;;;4996385;28;20408;-72
2022/02/01 14:38:56;;;;;;;1.03;0.80;;;3.20;99.90;;;;;;4993690;28;21185;-73
2022/02/01 14:46:41;;;;;;;1.30;1.30;;;3.10;99.90;;;;;;5012845;28;20757;-73
2022/02/01 14:49:06;;;;;;;1.40;1.30;;;3.10;99.90;;;;;;5012995;28;20439;-73
2022/02/01 14:51:32;;;;;;;1.90;1.53;;;3.10;99.90;;;;;;5005592;28;20617;-72